WZZ83A EDDH-LHBP
Flight info
| Callsign | WZZ83A |
|---|---|
| Flight time | 1h 29m |
| Altitude | 23000 |
| Route | RAMAR6C RAMAR Z998 NUSGU/N0449F350 Z998 GODUR/N0457F370 Z998 OSKAN M748 HDO DCT EVIKU DCT VLM DCT NAVTI DCT TOVKA DCT ANEXA |
| Aircraft | A21N/M-SDE3FGHIRWY/LB1 |
Departure
| Time | 2026-04-20 18:03 |
|---|---|
| Airport | Hamburg Helmut Schmidt Airport (EDDH) |
Arrival
| Time | 2026-04-20 19:33 |
|---|---|
| Airport | Budapest Liszt Ferenc International Airport (LHBP) |
| Time | Latitude | Longitude | Altitude | Speed | Heading |
|---|---|---|---|---|---|
| 2026-04-20 17:26 | 53.62993 | 10.00353 | 62 ft | 0 kts | 110° |
| 2026-04-20 17:51 | 53.62996 | 10.00339 | 62 ft | 2 kts | 105° |
| 2026-04-20 17:51 | 53.63000 | 10.00314 | 62 ft | 2 kts | 107° |
| 2026-04-20 17:51 | 53.63004 | 10.00289 | 62 ft | 2 kts | 107° |
| 2026-04-20 17:51 | 53.63009 | 10.00265 | 62 ft | 2 kts | 107° |
| 2026-04-20 17:52 | 53.63013 | 10.00241 | 62 ft | 2 kts | 107° |
| 2026-04-20 17:52 | 53.63016 | 10.00222 | 62 ft | 1 kts | 105° |
| 2026-04-20 17:52 | 53.63025 | 10.00212 | 62 ft | 1 kts | 204° |
| 2026-04-20 17:52 | 53.63031 | 10.00220 | 62 ft | 1 kts | 213° |
| 2026-04-20 17:53 | 53.63032 | 10.00221 | 62 ft | 0 kts | 213° |
| 2026-04-20 17:55 | 53.63031 | 10.00220 | 62 ft | 0 kts | 213° |
| 2026-04-20 17:55 | 53.63023 | 10.00211 | 62 ft | 2 kts | 213° |
| 2026-04-20 17:56 | 53.63003 | 10.00190 | 62 ft | 4 kts | 211° |
| 2026-04-20 17:56 | 53.62971 | 10.00156 | 62 ft | 6 kts | 211° |
| 2026-04-20 17:56 | 53.62929 | 10.00113 | 62 ft | 7 kts | 212° |
| 2026-04-20 17:56 | 53.62882 | 10.00060 | 62 ft | 8 kts | 218° |
| 2026-04-20 17:57 | 53.62837 | 10.00000 | 62 ft | 5 kts | 218° |
| 2026-04-20 17:57 | 53.62823 | 9.99984 | 62 ft | 0 kts | 215° |
| 2026-04-20 17:57 | 53.62822 | 9.99983 | 62 ft | 0 kts | 215° |
| 2026-04-20 17:58 | 53.62813 | 9.99972 | 62 ft | 2 kts | 215° |
| 2026-04-20 17:58 | 53.62793 | 9.99948 | 62 ft | 4 kts | 215° |
| 2026-04-20 17:58 | 53.62764 | 9.99914 | 62 ft | 5 kts | 213° |
| 2026-04-20 17:58 | 53.62724 | 9.99878 | 62 ft | 7 kts | 206° |
| 2026-04-20 17:59 | 53.62671 | 9.99831 | 62 ft | 8 kts | 212° |
| 2026-04-20 17:59 | 53.62635 | 9.99735 | 62 ft | 10 kts | 256° |
| 2026-04-20 17:59 | 53.62621 | 9.99598 | 62 ft | 11 kts | 261° |
| 2026-04-20 17:59 | 53.62603 | 9.99449 | 62 ft | 12 kts | 258° |
| 2026-04-20 18:00 | 53.62584 | 9.99283 | 62 ft | 13 kts | 259° |
| 2026-04-20 18:00 | 53.62564 | 9.99108 | 62 ft | 14 kts | 259° |
| 2026-04-20 18:00 | 53.62543 | 9.98920 | 62 ft | 15 kts | 258° |
| 2026-04-20 18:00 | 53.62519 | 9.98702 | 62 ft | 18 kts | 259° |
| 2026-04-20 18:01 | 53.62489 | 9.98446 | 62 ft | 20 kts | 259° |
| 2026-04-20 18:01 | 53.62450 | 9.98163 | 62 ft | 21 kts | 246° |
| 2026-04-20 18:01 | 53.62353 | 9.97938 | 62 ft | 20 kts | 230° |
| 2026-04-20 18:01 | 53.62249 | 9.97727 | 62 ft | 20 kts | 230° |
| 2026-04-20 18:02 | 53.62181 | 9.97504 | 62 ft | 18 kts | 275° |
| 2026-04-20 18:02 | 53.62282 | 9.97366 | 62 ft | 16 kts | 6° |
| 2026-04-20 18:02 | 53.62380 | 9.97489 | 62 ft | 20 kts | 49° |
| 2026-04-20 18:02 | 53.62648 | 9.98021 | 62 ft | 90 kts | 50° |
| 2026-04-20 18:03 | 53.63185 | 9.99124 | 63 ft | 146 kts | 51° |
| 2026-04-20 18:03 | 53.63925 | 10.00701 | 598 ft | 156 kts | 52° |
| 2026-04-20 18:03 | 53.64586 | 10.02119 | 1344 ft | 150 kts | 54° |
| 2026-04-20 18:03 | 53.65271 | 10.03512 | 2000 ft | 150 kts | 52° |
| 2026-04-20 18:04 | 53.66036 | 10.05077 | 2454 ft | 162 kts | 54° |
| 2026-04-20 18:04 | 53.66848 | 10.06783 | 2824 ft | 179 kts | 54° |
| 2026-04-20 18:04 | 53.67742 | 10.08668 | 3245 ft | 195 kts | 54° |
| 2026-04-20 18:04 | 53.68631 | 10.10544 | 3815 ft | 202 kts | 54° |
| 2026-04-20 18:05 | 53.70336 | 10.14140 | 5285 ft | 199 kts | 54° |
| 2026-04-20 18:05 | 53.71133 | 10.16153 | 5800 ft | 207 kts | 65° |
| 2026-04-20 18:05 | 53.71669 | 10.18526 | 6246 ft | 220 kts | 73° |
| 2026-04-20 18:06 | 53.72145 | 10.21316 | 6673 ft | 238 kts | 74° |
| 2026-04-20 18:06 | 53.72635 | 10.24280 | 7230 ft | 249 kts | 74° |
| 2026-04-20 18:06 | 53.73080 | 10.27256 | 7992 ft | 253 kts | 82° |
| 2026-04-20 18:06 | 53.72738 | 10.30363 | 8773 ft | 261 kts | 115° |
| 2026-04-20 18:07 | 53.71591 | 10.33057 | 9545 ft | 265 kts | 122° |
| 2026-04-20 18:07 | 53.70443 | 10.35650 | 10184 ft | 270 kts | 121° |
| 2026-04-20 18:07 | 53.69317 | 10.38259 | 10778 ft | 277 kts | 121° |
| 2026-04-20 18:07 | 53.68101 | 10.41129 | 11093 ft | 294 kts | 121° |
| 2026-04-20 18:08 | 53.66787 | 10.44258 | 11437 ft | 310 kts | 121° |
| 2026-04-20 18:08 | 53.65411 | 10.47544 | 11807 ft | 324 kts | 121° |
| 2026-04-20 18:08 | 53.64021 | 10.50864 | 12360 ft | 330 kts | 121° |
| 2026-04-20 18:08 | 53.62580 | 10.54302 | 13036 ft | 333 kts | 121° |
| 2026-04-20 18:09 | 53.61146 | 10.57726 | 13649 ft | 337 kts | 121° |
| 2026-04-20 18:09 | 53.59706 | 10.61162 | 14241 ft | 341 kts | 121° |
| 2026-04-20 18:09 | 53.58234 | 10.64673 | 14854 ft | 344 kts | 121° |
| 2026-04-20 18:09 | 53.56736 | 10.68243 | 15431 ft | 348 kts | 122° |
| 2026-04-20 18:10 | 53.55194 | 10.71692 | 15998 ft | 354 kts | 129° |
| 2026-04-20 18:10 | 53.53352 | 10.74632 | 16548 ft | 359 kts | 135° |
| 2026-04-20 18:10 | 53.51351 | 10.77516 | 17100 ft | 362 kts | 135° |
| 2026-04-20 18:10 | 53.49367 | 10.80372 | 17621 ft | 365 kts | 135° |
| 2026-04-20 18:11 | 53.47292 | 10.83396 | 18147 ft | 368 kts | 135° |
| 2026-04-20 18:11 | 53.45247 | 10.86411 | 18569 ft | 373 kts | 135° |
| 2026-04-20 18:11 | 53.43232 | 10.89405 | 18966 ft | 378 kts | 135° |
| 2026-04-20 18:11 | 53.41156 | 10.92494 | 19418 ft | 381 kts | 135° |
| 2026-04-20 18:12 | 53.39025 | 10.95668 | 19887 ft | 384 kts | 134° |
| 2026-04-20 18:12 | 53.36834 | 10.98934 | 20371 ft | 387 kts | 134° |
| 2026-04-20 18:12 | 53.34666 | 11.02163 | 20825 ft | 390 kts | 134° |
| 2026-04-20 18:12 | 53.32449 | 11.05465 | 21269 ft | 393 kts | 134° |
| 2026-04-20 18:13 | 53.30229 | 11.08765 | 21718 ft | 395 kts | 134° |
| 2026-04-20 18:13 | 53.28017 | 11.12050 | 22151 ft | 397 kts | 134° |
| 2026-04-20 18:13 | 53.25772 | 11.15383 | 22605 ft | 399 kts | 134° |
| 2026-04-20 18:13 | 53.23492 | 11.18759 | 23012 ft | 401 kts | 134° |
| 2026-04-20 18:14 | 53.21225 | 11.22113 | 23233 ft | 405 kts | 134° |
| 2026-04-20 18:14 | 53.18937 | 11.25496 | 23595 ft | 408 kts | 135° |
| 2026-04-20 18:14 | 53.16621 | 11.28910 | 24017 ft | 409 kts | 135° |
| 2026-04-20 18:14 | 53.14325 | 11.32293 | 24191 ft | 411 kts | 135° |
| 2026-04-20 18:15 | 53.11998 | 11.35714 | 24190 ft | 410 kts | 135° |
| 2026-04-20 18:15 | 53.09697 | 11.39092 | 24183 ft | 411 kts | 135° |
| 2026-04-20 18:15 | 53.07389 | 11.42475 | 24177 ft | 411 kts | 135° |
| 2026-04-20 18:15 | 53.05095 | 11.45834 | 24180 ft | 414 kts | 135° |
| 2026-04-20 18:16 | 53.02752 | 11.49260 | 24476 ft | 417 kts | 135° |
| 2026-04-20 18:16 | 53.00514 | 11.52528 | 24902 ft | 417 kts | 135° |
| 2026-04-20 18:16 | 52.98304 | 11.55751 | 25233 ft | 419 kts | 135° |
| 2026-04-20 18:16 | 52.96114 | 11.58941 | 25543 ft | 421 kts | 135° |
| 2026-04-20 18:17 | 52.93937 | 11.62106 | 25834 ft | 423 kts | 135° |
| 2026-04-20 18:17 | 52.91719 | 11.65327 | 26130 ft | 425 kts | 136° |
| 2026-04-20 18:17 | 52.89511 | 11.68528 | 26429 ft | 426 kts | 136° |
| 2026-04-20 18:17 | 52.87265 | 11.71780 | 26687 ft | 429 kts | 136° |
| 2026-04-20 18:18 | 52.85016 | 11.75031 | 26945 ft | 431 kts | 136° |
| 2026-04-20 18:18 | 52.82750 | 11.78299 | 27216 ft | 433 kts | 136° |
| 2026-04-20 18:18 | 52.80468 | 11.81587 | 27477 ft | 435 kts | 136° |
| 2026-04-20 18:18 | 52.78214 | 11.84830 | 27732 ft | 436 kts | 136° |
| 2026-04-20 18:19 | 52.75919 | 11.88127 | 28081 ft | 436 kts | 136° |
| 2026-04-20 18:19 | 52.73640 | 11.91396 | 28462 ft | 434 kts | 136° |
| 2026-04-20 18:19 | 52.71364 | 11.94658 | 28820 ft | 434 kts | 136° |
| 2026-04-20 18:19 | 52.69101 | 11.97898 | 29157 ft | 433 kts | 136° |
| 2026-04-20 18:20 | 52.66844 | 12.01124 | 29490 ft | 433 kts | 136° |
| 2026-04-20 18:20 | 52.64588 | 12.04341 | 29813 ft | 433 kts | 136° |
| 2026-04-20 18:20 | 52.62307 | 12.07592 | 30136 ft | 433 kts | 136° |
| 2026-04-20 18:20 | 52.60031 | 12.10829 | 30456 ft | 433 kts | 136° |
| 2026-04-20 18:21 | 52.57743 | 12.14079 | 30767 ft | 433 kts | 136° |
| 2026-04-20 18:21 | 52.55488 | 12.17278 | 31087 ft | 433 kts | 136° |
| 2026-04-20 18:21 | 52.53192 | 12.20531 | 31397 ft | 432 kts | 136° |
| 2026-04-20 18:21 | 52.50942 | 12.23714 | 31692 ft | 431 kts | 136° |
| 2026-04-20 18:22 | 52.48674 | 12.26920 | 31943 ft | 430 kts | 136° |
| 2026-04-20 18:22 | 52.46387 | 12.30147 | 32152 ft | 430 kts | 136° |
| 2026-04-20 18:22 | 52.44060 | 12.33427 | 32354 ft | 431 kts | 136° |
| 2026-04-20 18:22 | 52.41705 | 12.36741 | 32558 ft | 431 kts | 136° |
| 2026-04-20 18:23 | 52.39451 | 12.39907 | 32756 ft | 432 kts | 136° |
| 2026-04-20 18:23 | 52.37171 | 12.43106 | 32958 ft | 432 kts | 137° |
| 2026-04-20 18:23 | 52.34915 | 12.46265 | 33164 ft | 432 kts | 137° |
| 2026-04-20 18:23 | 52.32635 | 12.49452 | 33360 ft | 431 kts | 137° |
| 2026-04-20 18:24 | 52.30345 | 12.52651 | 33549 ft | 431 kts | 137° |
| 2026-04-20 18:24 | 52.28093 | 12.55793 | 33737 ft | 432 kts | 137° |
| 2026-04-20 18:24 | 52.25780 | 12.59013 | 33915 ft | 432 kts | 137° |
| 2026-04-20 18:24 | 52.23504 | 12.62179 | 34078 ft | 432 kts | 137° |
| 2026-04-20 18:25 | 52.21245 | 12.65317 | 34270 ft | 432 kts | 138° |
| 2026-04-20 18:25 | 52.18956 | 12.68493 | 34448 ft | 433 kts | 138° |
| 2026-04-20 18:25 | 52.16667 | 12.71663 | 34643 ft | 433 kts | 138° |
| 2026-04-20 18:25 | 52.14379 | 12.74827 | 34835 ft | 433 kts | 138° |
| 2026-04-20 18:26 | 52.12060 | 12.78032 | 35029 ft | 433 kts | 138° |
| 2026-04-20 18:26 | 52.09753 | 12.81213 | 35226 ft | 433 kts | 138° |
| 2026-04-20 18:26 | 52.07456 | 12.84376 | 35415 ft | 434 kts | 138° |
| 2026-04-20 18:26 | 52.05153 | 12.87544 | 35601 ft | 434 kts | 138° |
| 2026-04-20 18:27 | 52.02886 | 12.90657 | 35785 ft | 434 kts | 138° |
| 2026-04-20 18:27 | 52.00576 | 12.93824 | 35961 ft | 434 kts | 138° |
| 2026-04-20 18:27 | 51.98297 | 12.96945 | 36118 ft | 434 kts | 138° |
| 2026-04-20 18:27 | 51.95985 | 13.00107 | 36265 ft | 435 kts | 138° |
| 2026-04-20 18:28 | 51.93677 | 13.03259 | 36406 ft | 435 kts | 138° |
| 2026-04-20 18:28 | 51.91369 | 13.06408 | 36554 ft | 436 kts | 138° |
| 2026-04-20 18:28 | 51.89036 | 13.09586 | 36695 ft | 436 kts | 138° |
| 2026-04-20 18:28 | 51.86747 | 13.12702 | 36813 ft | 437 kts | 138° |
| 2026-04-20 18:29 | 51.84409 | 13.15878 | 36930 ft | 438 kts | 139° |
| 2026-04-20 18:29 | 51.82100 | 13.19009 | 37044 ft | 438 kts | 139° |
| 2026-04-20 18:29 | 51.77410 | 13.25357 | 37100 ft | 439 kts | 139° |
| 2026-04-20 18:30 | 51.72718 | 13.31687 | 37097 ft | 440 kts | 139° |
| 2026-04-20 18:30 | 51.68047 | 13.37976 | 37103 ft | 440 kts | 139° |
| 2026-04-20 18:31 | 51.63333 | 13.44303 | 37096 ft | 441 kts | 139° |
| 2026-04-20 18:31 | 51.58658 | 13.50560 | 37091 ft | 441 kts | 139° |
| 2026-04-20 18:32 | 51.53926 | 13.56878 | 37085 ft | 441 kts | 139° |
| 2026-04-20 18:32 | 51.49195 | 13.63176 | 37085 ft | 441 kts | 139° |
| 2026-04-20 18:33 | 51.44472 | 13.69444 | 37081 ft | 441 kts | 139° |
| 2026-04-20 18:33 | 51.39714 | 13.75740 | 37081 ft | 442 kts | 139° |
| 2026-04-20 18:34 | 51.35006 | 13.81955 | 37078 ft | 442 kts | 139° |
| 2026-04-20 18:34 | 51.30254 | 13.88211 | 37074 ft | 442 kts | 139° |
| 2026-04-20 18:35 | 51.25516 | 13.94432 | 37073 ft | 442 kts | 140° |
| 2026-04-20 18:35 | 51.20785 | 14.00626 | 37066 ft | 442 kts | 140° |
| 2026-04-20 18:36 | 51.16055 | 14.06799 | 37066 ft | 442 kts | 140° |
| 2026-04-20 18:36 | 51.11310 | 14.12976 | 37062 ft | 443 kts | 140° |
| 2026-04-20 18:37 | 51.06545 | 14.19165 | 37052 ft | 443 kts | 140° |
| 2026-04-20 18:37 | 51.01796 | 14.25312 | 37042 ft | 443 kts | 140° |
| 2026-04-20 18:38 | 50.96901 | 14.31298 | 37035 ft | 443 kts | 145° |
| 2026-04-20 18:38 | 50.91563 | 14.36069 | 37037 ft | 444 kts | 155° |
| 2026-04-20 18:39 | 50.85806 | 14.39455 | 37038 ft | 444 kts | 164° |
| 2026-04-20 18:39 | 50.79787 | 14.41741 | 37047 ft | 444 kts | 167° |
| 2026-04-20 18:40 | 50.73792 | 14.43930 | 37047 ft | 445 kts | 167° |
| 2026-04-20 18:40 | 50.67769 | 14.46149 | 37047 ft | 445 kts | 167° |
| 2026-04-20 18:41 | 50.61779 | 14.48359 | 37045 ft | 445 kts | 167° |
| 2026-04-20 18:41 | 50.55759 | 14.50577 | 37041 ft | 445 kts | 167° |
| 2026-04-20 18:42 | 50.49699 | 14.52831 | 37042 ft | 446 kts | 166° |
| 2026-04-20 18:42 | 50.43809 | 14.55800 | 37043 ft | 446 kts | 158° |
| 2026-04-20 18:43 | 50.38092 | 14.59731 | 37047 ft | 447 kts | 155° |
| 2026-04-20 18:43 | 50.32417 | 14.63741 | 37054 ft | 447 kts | 155° |
| 2026-04-20 18:44 | 50.26727 | 14.67742 | 37065 ft | 448 kts | 156° |
| 2026-04-20 18:44 | 50.20995 | 14.71752 | 37063 ft | 448 kts | 156° |
| 2026-04-20 18:45 | 50.15301 | 14.75723 | 37062 ft | 447 kts | 156° |
| 2026-04-20 18:45 | 50.09636 | 14.79664 | 37056 ft | 447 kts | 156° |
| 2026-04-20 18:46 | 50.03984 | 14.83588 | 37053 ft | 448 kts | 157° |
| 2026-04-20 18:46 | 49.98293 | 14.87525 | 37054 ft | 448 kts | 157° |
| 2026-04-20 18:47 | 49.92641 | 14.91427 | 37051 ft | 449 kts | 157° |
| 2026-04-20 18:47 | 49.86929 | 14.95360 | 37051 ft | 449 kts | 157° |
| 2026-04-20 18:48 | 49.81089 | 14.99369 | 37050 ft | 449 kts | 157° |
| 2026-04-20 18:48 | 49.75391 | 15.03301 | 37044 ft | 449 kts | 155° |
| 2026-04-20 18:49 | 49.69897 | 15.07936 | 37032 ft | 450 kts | 148° |
| 2026-04-20 18:49 | 49.64814 | 15.13576 | 37036 ft | 452 kts | 141° |
| 2026-04-20 18:50 | 49.59954 | 15.19657 | 37028 ft | 452 kts | 141° |
| 2026-04-20 18:50 | 49.55059 | 15.25753 | 37031 ft | 452 kts | 141° |
| 2026-04-20 18:51 | 49.50178 | 15.31800 | 37030 ft | 452 kts | 141° |
| 2026-04-20 18:51 | 49.45291 | 15.37828 | 37018 ft | 452 kts | 141° |
| 2026-04-20 18:52 | 49.40409 | 15.43835 | 37022 ft | 452 kts | 141° |
| 2026-04-20 18:52 | 49.35494 | 15.49866 | 37016 ft | 452 kts | 141° |
| 2026-04-20 18:53 | 49.30609 | 15.55847 | 37028 ft | 453 kts | 142° |
| 2026-04-20 18:53 | 49.25691 | 15.61851 | 37035 ft | 453 kts | 142° |
| 2026-04-20 18:54 | 49.20781 | 15.67831 | 37029 ft | 453 kts | 143° |
| 2026-04-20 18:54 | 49.15866 | 15.73800 | 37039 ft | 453 kts | 143° |
| 2026-04-20 18:55 | 49.10950 | 15.79751 | 37035 ft | 453 kts | 143° |
| 2026-04-20 18:55 | 49.06023 | 15.85700 | 37044 ft | 454 kts | 143° |
| 2026-04-20 18:56 | 49.01112 | 15.91619 | 37045 ft | 454 kts | 143° |
| 2026-04-20 18:56 | 48.96144 | 15.97588 | 37052 ft | 455 kts | 143° |
| 2026-04-20 18:57 | 48.91195 | 16.03524 | 37051 ft | 455 kts | 143° |
| 2026-04-20 18:57 | 48.86235 | 16.09451 | 37060 ft | 455 kts | 143° |
| 2026-04-20 18:58 | 48.81256 | 16.15386 | 37059 ft | 456 kts | 143° |
| 2026-04-20 18:58 | 48.76356 | 16.21427 | 37054 ft | 458 kts | 139° |
| 2026-04-20 18:59 | 48.71754 | 16.28074 | 37058 ft | 459 kts | 137° |
| 2026-04-20 18:59 | 48.67168 | 16.34791 | 37042 ft | 460 kts | 137° |
| 2026-04-20 19:00 | 48.62494 | 16.41601 | 37058 ft | 461 kts | 137° |
| 2026-04-20 19:00 | 48.57864 | 16.48319 | 37045 ft | 462 kts | 137° |
| 2026-04-20 19:01 | 48.53251 | 16.54995 | 37046 ft | 462 kts | 137° |
| 2026-04-20 19:01 | 48.48637 | 16.61656 | 37043 ft | 462 kts | 137° |
| 2026-04-20 19:02 | 48.43997 | 16.68333 | 37043 ft | 462 kts | 138° |
| 2026-04-20 19:02 | 48.39310 | 16.75059 | 37035 ft | 463 kts | 138° |
| 2026-04-20 19:03 | 48.34633 | 16.81754 | 37046 ft | 463 kts | 138° |
| 2026-04-20 19:03 | 48.30080 | 16.88873 | 36923 ft | 466 kts | 130° |
| 2026-04-20 19:04 | 48.28124 | 16.92731 | 36693 ft | 463 kts | 125° |
| 2026-04-20 19:04 | 48.26353 | 16.96888 | 36319 ft | 459 kts | 120° |
| 2026-04-20 19:04 | 48.24852 | 17.01130 | 35834 ft | 458 kts | 115° |
| 2026-04-20 19:04 | 48.23550 | 17.05664 | 35351 ft | 458 kts | 111° |
| 2026-04-20 19:05 | 48.22309 | 17.10499 | 34775 ft | 459 kts | 110° |
| 2026-04-20 19:05 | 48.21144 | 17.15088 | 34160 ft | 462 kts | 110° |
| 2026-04-20 19:05 | 48.19993 | 17.19594 | 33588 ft | 464 kts | 110° |
| 2026-04-20 19:05 | 48.18798 | 17.24233 | 33076 ft | 466 kts | 111° |
| 2026-04-20 19:06 | 48.17630 | 17.28733 | 32683 ft | 465 kts | 111° |
| 2026-04-20 19:06 | 48.16430 | 17.33333 | 32474 ft | 468 kts | 111° |
| 2026-04-20 19:06 | 48.15249 | 17.37841 | 32159 ft | 470 kts | 111° |
| 2026-04-20 19:06 | 48.14043 | 17.42437 | 31573 ft | 474 kts | 111° |
| 2026-04-20 19:07 | 48.12829 | 17.47054 | 30884 ft | 478 kts | 111° |
| 2026-04-20 19:07 | 48.11582 | 17.51782 | 30174 ft | 483 kts | 111° |
| 2026-04-20 19:07 | 48.10352 | 17.56432 | 29482 ft | 487 kts | 111° |
| 2026-04-20 19:07 | 48.09103 | 17.61142 | 28787 ft | 489 kts | 111° |
| 2026-04-20 19:08 | 48.07832 | 17.65925 | 28060 ft | 492 kts | 112° |
| 2026-04-20 19:08 | 48.05260 | 17.75595 | 26589 ft | 494 kts | 112° |
| 2026-04-20 19:08 | 48.03987 | 17.80358 | 25840 ft | 495 kts | 112° |
| 2026-04-20 19:09 | 48.02696 | 17.85186 | 25296 ft | 489 kts | 112° |
| 2026-04-20 19:09 | 48.01453 | 17.89824 | 24794 ft | 483 kts | 112° |
| 2026-04-20 19:09 | 48.00191 | 17.94520 | 24250 ft | 477 kts | 112° |
| 2026-04-20 19:09 | 47.98959 | 17.99096 | 23717 ft | 471 kts | 112° |
| 2026-04-20 19:10 | 47.97718 | 18.03692 | 23196 ft | 464 kts | 112° |
| 2026-04-20 19:10 | 47.96526 | 18.08105 | 22689 ft | 458 kts | 112° |
| 2026-04-20 19:10 | 47.95332 | 18.12521 | 22182 ft | 453 kts | 112° |
| 2026-04-20 19:10 | 47.94163 | 18.16828 | 21681 ft | 447 kts | 112° |
| 2026-04-20 19:11 | 47.92998 | 18.21117 | 21188 ft | 442 kts | 112° |
| 2026-04-20 19:11 | 47.91815 | 18.25460 | 20685 ft | 437 kts | 112° |
| 2026-04-20 19:11 | 47.90589 | 18.29954 | 20144 ft | 432 kts | 112° |
| 2026-04-20 19:11 | 47.89398 | 18.34312 | 19631 ft | 428 kts | 112° |
| 2026-04-20 19:12 | 47.88239 | 18.38539 | 19132 ft | 424 kts | 112° |
| 2026-04-20 19:12 | 47.87059 | 18.42839 | 18592 ft | 420 kts | 112° |
| 2026-04-20 19:12 | 47.85680 | 18.46981 | 18054 ft | 414 kts | 124° |
| 2026-04-20 19:12 | 47.83648 | 18.50363 | 17806 ft | 399 kts | 141° |
| 2026-04-20 19:13 | 47.81246 | 18.52890 | 17369 ft | 390 kts | 149° |
| 2026-04-20 19:13 | 47.78794 | 18.55153 | 16757 ft | 388 kts | 150° |
| 2026-04-20 19:13 | 47.76299 | 18.57437 | 16013 ft | 384 kts | 150° |
| 2026-04-20 19:13 | 47.74042 | 18.59545 | 15256 ft | 381 kts | 149° |
| 2026-04-20 19:14 | 47.71831 | 18.61639 | 14520 ft | 378 kts | 148° |
| 2026-04-20 19:14 | 47.69652 | 18.63903 | 13769 ft | 376 kts | 142° |
| 2026-04-20 19:14 | 47.67632 | 18.66529 | 13018 ft | 374 kts | 136° |
| 2026-04-20 19:14 | 47.65863 | 18.69319 | 12282 ft | 371 kts | 132° |
| 2026-04-20 19:15 | 47.64151 | 18.72154 | 11611 ft | 371 kts | 132° |
| 2026-04-20 19:15 | 47.62446 | 18.74961 | 11147 ft | 367 kts | 132° |
| 2026-04-20 19:15 | 47.60761 | 18.77730 | 10678 ft | 364 kts | 131° |
| 2026-04-20 19:15 | 47.59066 | 18.80513 | 10174 ft | 362 kts | 131° |
| 2026-04-20 19:16 | 47.57397 | 18.83252 | 9836 ft | 355 kts | 131° |
| 2026-04-20 19:16 | 47.55769 | 18.85923 | 9638 ft | 344 kts | 131° |
| 2026-04-20 19:16 | 47.54172 | 18.88540 | 9485 ft | 331 kts | 131° |
| 2026-04-20 19:16 | 47.52615 | 18.91090 | 9250 ft | 314 kts | 131° |
| 2026-04-20 19:17 | 47.51100 | 18.93568 | 8876 ft | 309 kts | 130° |
| 2026-04-20 19:17 | 47.49489 | 18.96205 | 8478 ft | 305 kts | 131° |
| 2026-04-20 19:17 | 47.47910 | 18.98788 | 8080 ft | 302 kts | 130° |
| 2026-04-20 19:17 | 47.46415 | 19.01225 | 7986 ft | 301 kts | 130° |
| 2026-04-20 19:18 | 47.44780 | 19.03892 | 7971 ft | 302 kts | 130° |
| 2026-04-20 19:18 | 47.43160 | 19.06532 | 7990 ft | 303 kts | 130° |
| 2026-04-20 19:18 | 47.41579 | 19.09105 | 7908 ft | 302 kts | 130° |
| 2026-04-20 19:18 | 47.40074 | 19.11550 | 7769 ft | 301 kts | 130° |
| 2026-04-20 19:19 | 47.38633 | 19.13888 | 7496 ft | 297 kts | 130° |
| 2026-04-20 19:19 | 47.37215 | 19.16187 | 7104 ft | 296 kts | 130° |
| 2026-04-20 19:19 | 47.35768 | 19.18531 | 6747 ft | 294 kts | 130° |
| 2026-04-20 19:19 | 47.34286 | 19.20932 | 6378 ft | 291 kts | 130° |
| 2026-04-20 19:20 | 47.32870 | 19.23221 | 6161 ft | 280 kts | 130° |
| 2026-04-20 19:20 | 47.31482 | 19.25465 | 5968 ft | 271 kts | 130° |
| 2026-04-20 19:20 | 47.30188 | 19.27554 | 5790 ft | 261 kts | 130° |
| 2026-04-20 19:20 | 47.28926 | 19.29588 | 5524 ft | 248 kts | 130° |
| 2026-04-20 19:21 | 47.27717 | 19.31535 | 5287 ft | 237 kts | 130° |
| 2026-04-20 19:21 | 47.26545 | 19.33426 | 5043 ft | 232 kts | 130° |
| 2026-04-20 19:21 | 47.25370 | 19.35325 | 4760 ft | 230 kts | 129° |
| 2026-04-20 19:21 | 47.24267 | 19.37140 | 4474 ft | 228 kts | 129° |
| 2026-04-20 19:22 | 47.23116 | 19.39026 | 4169 ft | 227 kts | 129° |
| 2026-04-20 19:22 | 47.22006 | 19.40843 | 3927 ft | 223 kts | 129° |
| 2026-04-20 19:22 | 47.20931 | 19.42601 | 3618 ft | 223 kts | 129° |
| 2026-04-20 19:22 | 47.19816 | 19.44422 | 3293 ft | 223 kts | 129° |
| 2026-04-20 19:23 | 47.18671 | 19.46299 | 3023 ft | 220 kts | 129° |
| 2026-04-20 19:23 | 47.17526 | 19.48180 | 2994 ft | 222 kts | 129° |
| 2026-04-20 19:23 | 47.16396 | 19.50043 | 2995 ft | 223 kts | 129° |
| 2026-04-20 19:23 | 47.15297 | 19.51863 | 2993 ft | 223 kts | 129° |
| 2026-04-20 19:24 | 47.14112 | 19.53826 | 2994 ft | 223 kts | 128° |
| 2026-04-20 19:24 | 47.13274 | 19.56008 | 2962 ft | 216 kts | 94° |
| 2026-04-20 19:24 | 47.13467 | 19.58251 | 2972 ft | 206 kts | 57° |
| 2026-04-20 19:24 | 47.14337 | 19.59859 | 2969 ft | 197 kts | 27° |
| 2026-04-20 19:25 | 47.15609 | 19.60379 | 2983 ft | 191 kts | 355° |
| 2026-04-20 19:25 | 47.17077 | 19.60068 | 2997 ft | 191 kts | 347° |
| 2026-04-20 19:25 | 47.18538 | 19.59589 | 2992 ft | 190 kts | 345° |
| 2026-04-20 19:25 | 47.19979 | 19.59093 | 2984 ft | 191 kts | 345° |
| 2026-04-20 19:26 | 47.21418 | 19.58598 | 2983 ft | 190 kts | 345° |
| 2026-04-20 19:26 | 47.22852 | 19.58107 | 2981 ft | 190 kts | 345° |
| 2026-04-20 19:26 | 47.24253 | 19.57366 | 2976 ft | 190 kts | 331° |
| 2026-04-20 19:26 | 47.25412 | 19.56189 | 2958 ft | 179 kts | 320° |
| 2026-04-20 19:27 | 47.26316 | 19.54967 | 2958 ft | 172 kts | 317° |
| 2026-04-20 19:27 | 47.27187 | 19.53706 | 2969 ft | 171 kts | 316° |
| 2026-04-20 19:27 | 47.28021 | 19.52443 | 2979 ft | 172 kts | 315° |
| 2026-04-20 19:27 | 47.28845 | 19.51162 | 2976 ft | 172 kts | 315° |
| 2026-04-20 19:28 | 47.29662 | 19.49861 | 2979 ft | 172 kts | 314° |
| 2026-04-20 19:28 | 47.30467 | 19.48564 | 2981 ft | 173 kts | 314° |
| 2026-04-20 19:28 | 47.31275 | 19.47252 | 2975 ft | 170 kts | 314° |
| 2026-04-20 19:28 | 47.32064 | 19.45968 | 2716 ft | 170 kts | 314° |
| 2026-04-20 19:29 | 47.32859 | 19.44673 | 2492 ft | 169 kts | 314° |
| 2026-04-20 19:29 | 47.33690 | 19.43321 | 2496 ft | 171 kts | 313° |
| 2026-04-20 19:29 | 47.34515 | 19.41980 | 2492 ft | 171 kts | 313° |
| 2026-04-20 19:29 | 47.35331 | 19.40655 | 2453 ft | 171 kts | 314° |
| 2026-04-20 19:30 | 47.36120 | 19.39374 | 2246 ft | 165 kts | 313° |
| 2026-04-20 19:30 | 47.36884 | 19.38135 | 2021 ft | 152 kts | 313° |
| 2026-04-20 19:30 | 47.37561 | 19.37040 | 1797 ft | 139 kts | 313° |
| 2026-04-20 19:30 | 47.38199 | 19.36009 | 1573 ft | 127 kts | 313° |
| 2026-04-20 19:31 | 47.38812 | 19.35017 | 1409 ft | 126 kts | 313° |
| 2026-04-20 19:31 | 47.39405 | 19.34059 | 1254 ft | 125 kts | 313° |
| 2026-04-20 19:31 | 47.40018 | 19.33067 | 1088 ft | 125 kts | 313° |
| 2026-04-20 19:31 | 47.40626 | 19.32083 | 915 ft | 125 kts | 312° |
| 2026-04-20 19:32 | 47.41258 | 19.31055 | 716 ft | 126 kts | 312° |
| 2026-04-20 19:32 | 47.41878 | 19.30062 | 559 ft | 127 kts | 312° |
| 2026-04-20 19:32 | 47.42477 | 19.29087 | 415 ft | 122 kts | 311° |
| 2026-04-20 19:32 | 47.42968 | 19.28293 | 425 ft | 77 kts | 311° |
| 2026-04-20 19:33 | 47.43219 | 19.27894 | 438 ft | 28 kts | 311° |
| 2026-04-20 19:33 | 47.43317 | 19.27678 | 444 ft | 23 kts | 293° |
| 2026-04-20 19:33 | 47.43357 | 19.27482 | 449 ft | 15 kts | 283° |
| 2026-04-20 19:33 | 47.43378 | 19.27348 | 452 ft | 11 kts | 283° |
| 2026-04-20 19:34 | 47.43394 | 19.27250 | 454 ft | 8 kts | 283° |
| 2026-04-20 19:34 | 47.43405 | 19.27179 | 456 ft | 5 kts | 283° |
| 2026-04-20 19:34 | 47.43411 | 19.27142 | 457 ft | 1 kts | 282° |
| 2026-04-20 19:34 | 47.43411 | 19.27138 | 457 ft | 0 kts | 282° |
| 2026-04-20 19:35 | 47.43411 | 19.27142 | 457 ft | 1 kts | 282° |
| 2026-04-20 19:35 | 47.43419 | 19.27083 | 460 ft | 10 kts | 283° |
| 2026-04-20 19:35 | 47.43459 | 19.26949 | 465 ft | 18 kts | 306° |
| 2026-04-20 19:35 | 47.43549 | 19.26801 | 469 ft | 17 kts | 312° |
| 2026-04-20 19:36 | 47.43626 | 19.26674 | 473 ft | 14 kts | 311° |
| 2026-04-20 19:36 | 47.43693 | 19.26565 | 474 ft | 14 kts | 312° |
| 2026-04-20 19:36 | 47.43749 | 19.26453 | 475 ft | 12 kts | 275° |
| 2026-04-20 19:36 | 47.43700 | 19.26353 | 475 ft | 12 kts | 209° |
| 2026-04-20 19:37 | 47.43627 | 19.26410 | 474 ft | 10 kts | 135° |
| 2026-04-20 19:37 | 47.43591 | 19.26464 | 474 ft | 4 kts | 129° |
| 2026-04-20 19:37 | 47.43565 | 19.26470 | 474 ft | 2 kts | 214° |
| 2026-04-20 19:37 | 47.43562 | 19.26466 | 474 ft | 0 kts | 222° |
| 2026-04-20 19:38 | 47.43556 | 19.26458 | 474 ft | 1 kts | 221° |
| 2026-04-20 19:38 | 47.43551 | 19.26452 | 474 ft | 0 kts | 222° |
| 2026-04-20 19:38 | 47.43549 | 19.26448 | 474 ft | 0 kts | 222° |
| 2026-04-20 19:38 | 47.43544 | 19.26442 | 474 ft | 0 kts | 222° |
| 2026-04-20 19:39 | 47.43542 | 19.26439 | 474 ft | 0 kts | 222° |